Strona główna
METAR-TAF:

METAR-TAF

Lotnisko :

Port lotniczy Chartum

Chartum, Sudan

Szerokość geograficzna: 15-36N, Długość geograficzna: 032-33E, wysokość: 382 m

Aktualna obserwacja pogody

Raport powstał 20 minut temu, godzina 11:30 UTC
Wiatr 8 kt od północno-północny zachód
Temperatura 31°C
Wilgotność 21%
Ciśnienie 1011 hPa
Widzialność 10 km lub więcej
Brak chmur poniżej 1500 m i brak chmur cumulonimbus

METAR: HSSS 101130Z 34008KT CAVOK 31/06 Q1011 NOSIG

czas: 13:50 (11:50 UTC)

Prognoza

Raport powstał 50 minut temu, godzina 11:00 UTC
Prognoza ważna od 10 godzina 12 UTC do 11 godzina 18 UTC
Wiatr 9 kt od północ w porywach dochodzący do 15 kt
Widzialność 10 km lub więcej
Brak chmur poniżej 1500 m i brak chmur cumulonimbus

TAF: HSSS 101100Z 1012/1118 01009G15KT CAVOK

Obserwacja i prognoza pogody dla ponad 4000 lotnisk (raport METAR i TAF).

Dostępne stacje oznaczono żółtymi i czerwonymi punktami na mapie.

Najedź kursorem aby zobaczyć nazwę stacji.

Kliknij aby zobaczyć obserwacje i prognozy pogody.

Aby zmienić mapę: kliknij na zielony przycisk z czarnym krzyżykiem, aby powiększyć; na zielony przycisk z myślnikiem, aby pomniejszyć; na zielone strzałki, aby przejść do map sąsiednich.


METAR-TAF: